Dati Storici

Data ora Umidita' aria (%) Temperatura aria (°C) Rad globale (W/m²) Gonioanemometro (°) Tacoanemometro (m/s) Pioggia (mm)
29-10-2012 04:10 76.9 % 5.281 3.465 20.195 2.023 0
29-10-2012 04:00 76.9 % 5.3 3.298 16.11 1.352 0
29-10-2012 03:50 77 % 5.253 2.798 8.985 1.353 0
29-10-2012 03:40 76.5 % 5.363 2.708 24.669 0.438 0
29-10-2012 03:30 76.8 % 5.346 2.721 20.201 1.298 0
29-10-2012 03:20 76.5 % 5.518 3.042 12.893 1.492 0
29-10-2012 03:10 75.7 % 5.617 3.195 37.848 1.786 0
29-10-2012 03:00 75.3 % 5.81 3.76 34.793 2.311 0
29-10-2012 02:50 74.7 % 5.841 3.696 352.157 1.901 0
29-10-2012 02:40 74.1 % 5.909 3.696 29.784 2.898 0
29-10-2012 02:30 73.4 % 5.978 3.285 13.562 2.492 0
29-10-2012 02:20 72.9 % 6.151 3.709 25.154 3.64 0
29-10-2012 02:10 72.1 % 6.447 3.26 23.544 3.322 0
29-10-2012 02:00 73.2 % 6.46 2.849 23.088 2.756 0
29-10-2012 01:50 73.2 % 6.492 2.22 39.659 1.882 0
29-10-2012 01:40 74 % 6.428 1.373 97.225 3.26 0
29-10-2012 01:30 75 % 6.364 1.515 53.926 2.814 0
29-10-2012 01:20 75.8 % 6.334 0.988 245.394 1.023 0
29-10-2012 01:10 75 % 6.278 1.026 50.084 4.013 0
29-10-2012 01:00 74.4 % 6.289 1.758 46.201 5.002 0

I dati sono presentati in modo automatico a scopo informativo. In seguito a verifica i dati possono subire modifiche o essere invalidati e non riportati negli archivi definitivi.